createdAt,value
2023-02-22T00:00:20.474Z,4.95
2023-02-22T00:02:47.334Z,4.72
2023-02-22T00:05:14.632Z,4.88
2023-02-22T00:07:41.306Z,4.07
2023-02-22T00:10:08.328Z,4.20
2023-02-22T00:12:34.940Z,4.90
2023-02-22T00:15:03.117Z,4.60
2023-02-22T00:17:29.755Z,4.53
2023-02-22T00:19:56.347Z,4.77
2023-02-22T00:22:22.976Z,4.50
2023-02-22T00:24:49.614Z,4.78
2023-02-22T00:27:16.601Z,4.72
2023-02-22T00:29:44.605Z,4.60
2023-02-22T00:32:12.700Z,4.23
2023-02-22T00:34:39.330Z,4.40
2023-02-22T00:37:05.904Z,5.47
2023-02-22T00:39:32.730Z,4.57
2023-02-22T00:41:59.382Z,4.20
2023-02-22T00:44:26.239Z,4.47
2023-02-22T00:46:52.856Z,4.10
2023-02-22T00:49:20.928Z,4.88
2023-02-22T00:51:47.569Z,4.50
2023-02-22T00:54:14.161Z,6.45
2023-02-22T00:56:40.754Z,6.90
2023-02-22T00:59:07.312Z,6.30
2023-02-22T01:01:33.952Z,5.75
2023-02-22T01:04:00.541Z,5.85
2023-02-22T01:06:28.986Z,5.88
2023-02-22T01:08:55.610Z,5.63
2023-02-22T01:11:22.201Z,5.07
2023-02-22T01:13:48.806Z,5.30
2023-02-22T01:16:15.466Z,5.03
2023-02-22T01:18:42.185Z,5.50
2023-02-22T01:21:09.059Z,4.77
2023-02-22T01:23:37.444Z,5.47
2023-02-22T01:26:05.076Z,4.93
2023-02-22T01:28:31.946Z,4.72
2023-02-22T01:30:58.871Z,5.05
2023-02-22T01:33:25.512Z,4.80
2023-02-22T01:35:52.162Z,4.35
2023-02-22T01:38:18.745Z,5.20
2023-02-22T01:40:50.160Z,4.97
2023-02-22T01:43:20.845Z,5.50
2023-02-22T01:45:54.840Z,5.80
2023-02-22T01:48:27.327Z,6.65
2023-02-22T01:50:59.249Z,5.80
2023-02-22T01:53:29.349Z,6.00
2023-02-22T01:55:58.189Z,6.82
2023-02-22T01:58:26.308Z,7.17
2023-02-22T02:00:53.050Z,7.05
2023-02-22T02:03:22.236Z,6.75
2023-02-22T02:05:51.628Z,6.38
2023-02-22T02:08:27.641Z,6.63
2023-02-22T02:10:55.545Z,6.27
2023-02-22T02:13:25.184Z,6.07
2023-02-22T02:15:54.788Z,6.20
2023-02-22T02:18:22.592Z,5.95
2023-02-22T02:21:07.259Z,6.28
2023-02-22T02:24:05.455Z,5.07
2023-02-22T02:27:02.190Z,5.18
2023-02-22T02:30:06.721Z,5.57
2023-02-22T02:32:48.699Z,5.68
2023-02-22T02:35:22.084Z,5.80
2023-02-22T02:37:56.067Z,6.53
2023-02-22T02:40:29.363Z,7.30
2023-02-22T02:43:01.465Z,7.18
2023-02-22T02:45:32.974Z,7.18
2023-02-22T02:48:02.403Z,7.22
2023-02-22T02:50:34.087Z,7.87
2023-02-22T02:53:04.901Z,8.40
2023-02-22T02:55:32.417Z,8.40
2023-02-22T02:57:58.973Z,7.20
2023-02-22T03:00:31.089Z,9.90
2023-02-22T03:03:27.384Z,8.33
2023-02-22T03:06:21.765Z,8.27
2023-02-22T03:08:55.524Z,7.32
2023-02-22T03:11:27.497Z,8.60
2023-02-22T03:14:02.584Z,7.65
2023-02-22T03:16:38.449Z,8.63
2023-02-22T03:19:11.520Z,9.18
2023-02-22T03:21:46.441Z,10.63
2023-02-22T03:24:19.449Z,9.57
2023-02-22T03:26:51.281Z,12.15
2023-02-22T03:29:20.694Z,12.97
2023-02-22T03:31:52.339Z,12.07
2023-02-22T03:34:22.727Z,11.63
2023-02-22T03:36:55.947Z,12.13
2023-02-22T03:39:24.291Z,12.30
2023-02-22T03:41:50.913Z,10.93
2023-02-22T03:44:22.666Z,11.15
2023-02-22T03:46:51.300Z,11.30
2023-02-22T03:49:25.008Z,11.70
2023-02-22T03:51:53.435Z,11.93
2023-02-22T03:54:20.117Z,11.37
2023-02-22T03:56:52.516Z,12.55
2023-02-22T03:59:20.465Z,12.75
2023-02-22T04:01:47.064Z,12.57
2023-02-22T04:04:13.841Z,13.45
2023-02-22T04:06:40.691Z,11.37
2023-02-22T04:09:08.740Z,11.48
2023-02-22T04:11:35.468Z,12.07
2023-02-22T04:14:02.145Z,11.68
2023-02-22T04:16:28.768Z,11.43
2023-02-22T04:18:55.379Z,10.93
2023-02-22T04:21:22.013Z,10.30
2023-02-22T04:23:48.646Z,12.10
2023-02-22T04:26:16.920Z,11.30
2023-02-22T04:28:43.669Z,10.75
2023-02-22T04:31:10.650Z,10.47
2023-02-22T04:33:37.307Z,10.73
2023-02-22T04:36:04.709Z,10.88
2023-02-22T04:38:31.303Z,10.98
2023-02-22T04:40:57.872Z,10.88
2023-02-22T04:43:25.853Z,11.93
2023-02-22T04:45:52.602Z,13.25
2023-02-22T04:48:19.173Z,13.52
2023-02-22T04:50:45.883Z,12.80
2023-02-22T04:53:12.459Z,12.65
2023-02-22T04:55:39.123Z,11.63
2023-02-22T04:58:07.102Z,11.18
2023-02-22T05:00:36.154Z,11.07
2023-02-22T05:03:02.802Z,10.57
2023-02-22T05:05:29.566Z,9.65
2023-02-22T05:07:56.206Z,10.57
2023-02-22T05:10:22.893Z,9.93
2023-02-22T05:12:49.493Z,10.05
2023-02-22T05:15:17.906Z,9.60
2023-02-22T05:17:46.410Z,9.23
2023-02-22T05:20:19.778Z,8.73
2023-02-22T05:22:46.463Z,10.02
2023-02-22T05:25:13.059Z,8.75
2023-02-22T05:27:39.855Z,8.57
2023-02-22T05:30:07.429Z,7.88
2023-02-22T05:32:34.066Z,9.03
2023-02-22T05:35:02.137Z,11.15
2023-02-22T05:37:28.749Z,12.70
2023-02-22T05:39:55.355Z,12.38
2023-02-22T05:42:22.024Z,12.45
2023-02-22T05:44:48.834Z,11.00
2023-02-22T05:47:15.473Z,10.32
2023-02-22T05:49:42.130Z,10.77
2023-02-22T05:52:10.139Z,9.52
2023-02-22T05:54:36.729Z,9.15
2023-02-22T05:57:03.532Z,9.10
2023-02-22T05:59:30.113Z,7.55
2023-02-22T06:01:56.757Z,6.60
2023-02-22T06:04:23.466Z,6.82
2023-02-22T06:06:50.117Z,7.00
2023-02-22T06:09:18.360Z,8.17
2023-02-22T06:11:45.032Z,7.72
2023-02-22T06:14:11.716Z,8.15
2023-02-22T06:16:38.457Z,7.90
2023-02-22T06:19:05.124Z,7.78
2023-02-22T06:21:31.717Z,8.10
2023-02-22T06:23:58.332Z,7.80
2023-02-22T06:26:26.283Z,7.97
2023-02-22T06:28:52.917Z,7.53
2023-02-22T06:31:19.838Z,8.32
2023-02-22T06:33:46.726Z,7.40
2023-02-22T06:36:13.294Z,8.32
2023-02-22T06:38:39.906Z,7.47
2023-02-22T06:41:08.362Z,7.97
2023-02-22T06:43:36.319Z,9.80
2023-02-22T06:46:03.042Z,8.70
2023-02-22T06:48:29.703Z,9.20
2023-02-22T06:50:56.377Z,8.65
2023-02-22T06:53:23.456Z,9.45
2023-02-22T06:55:53.747Z,8.73
2023-02-22T06:58:20.478Z,8.80
2023-02-22T07:00:48.712Z,8.23
2023-02-22T07:03:15.316Z,8.35
2023-02-22T07:05:42.348Z,9.70
2023-02-22T07:08:08.937Z,8.48
2023-02-22T07:10:37.174Z,10.20
2023-02-22T07:13:05.253Z,10.23
2023-02-22T07:15:33.205Z,9.60
2023-02-22T07:18:01.567Z,8.80
2023-02-22T07:20:29.900Z,8.38
2023-02-22T07:22:56.550Z,7.70
2023-02-22T07:25:24.029Z,8.27
2023-02-22T07:27:50.931Z,8.55
2023-02-22T07:30:20.481Z,8.70
2023-02-22T07:32:47.410Z,11.15
2023-02-22T07:35:17.317Z,10.33
2023-02-22T07:37:44.143Z,11.75
2023-02-22T07:40:11.538Z,10.60
2023-02-22T07:42:51.830Z,9.93
2023-02-22T07:45:18.622Z,9.23
2023-02-22T07:47:46.479Z,9.30
2023-02-22T07:50:13.377Z,9.13
2023-02-22T07:52:45.367Z,7.97
2023-02-22T07:55:13.277Z,8.07
2023-02-22T07:57:39.925Z,7.75
2023-02-22T08:00:07.677Z,6.73
2023-02-22T08:02:34.311Z,7.63
2023-02-22T08:05:01.008Z,7.32
2023-02-22T08:07:27.586Z,6.40
2023-02-22T08:09:55.663Z,6.47
2023-02-22T08:12:22.284Z,6.33
2023-02-22T08:14:48.878Z,6.28
2023-02-22T08:17:15.550Z,6.80
2023-02-22T08:19:42.214Z,6.03
2023-02-22T08:22:08.836Z,6.18
2023-02-22T08:24:35.547Z,6.07
2023-02-22T08:27:03.648Z,6.20
2023-02-22T08:29:30.288Z,5.72
2023-02-22T08:31:57.020Z,5.78
2023-02-22T08:34:23.766Z,6.20
2023-02-22T08:36:50.430Z,5.80
2023-02-22T08:39:17.235Z,5.80
2023-02-22T08:41:43.911Z,6.00
2023-02-22T08:44:12.042Z,6.00
2023-02-22T08:46:38.742Z,5.85
2023-02-22T08:49:05.520Z,5.97
2023-02-22T08:51:34.999Z,6.38
2023-02-22T08:54:01.665Z,6.07
2023-02-22T08:56:28.348Z,6.15
2023-02-22T08:58:54.914Z,6.93
2023-02-22T09:01:32.673Z,6.33
2023-02-22T09:03:59.961Z,5.55
2023-02-22T09:06:26.723Z,6.22
2023-02-22T09:08:53.316Z,6.05
2023-02-22T09:11:20.028Z,5.82
2023-02-22T09:13:46.667Z,5.37
2023-02-22T09:16:13.438Z,6.93
2023-02-22T09:18:44.204Z,6.85
2023-02-22T09:21:12.036Z,6.30
2023-02-22T09:23:38.663Z,7.18
2023-02-22T09:26:07.949Z,5.80
2023-02-22T09:28:34.684Z,6.25
2023-02-22T09:31:01.412Z,6.10
2023-02-22T09:33:28.049Z,6.07
2023-02-22T09:35:56.092Z,6.10
2023-02-22T09:38:23.764Z,5.67
2023-02-22T09:40:54.498Z,5.65
2023-02-22T09:43:33.635Z,5.50
2023-02-22T09:46:17.842Z,5.47
2023-02-22T09:48:54.286Z,5.47
2023-02-22T09:51:22.840Z,5.50
2023-02-22T09:53:51.428Z,5.78
2023-02-22T09:56:20.732Z,5.30
2023-02-22T09:58:50.303Z,5.63
2023-02-22T10:01:24.260Z,5.43
2023-02-22T10:03:56.984Z,5.20
2023-02-22T10:06:25.275Z,5.25
2023-02-22T10:08:55.093Z,5.28
2023-02-22T10:11:37.105Z,5.97
2023-02-22T10:14:26.237Z,5.53
2023-02-22T10:17:03.893Z,5.80
2023-02-22T10:19:36.842Z,7.93
2023-02-22T10:22:44.377Z,9.30
2023-02-22T10:25:14.010Z,9.18
2023-02-22T10:27:42.820Z,8.15
2023-02-22T10:30:24.907Z,7.60
2023-02-22T10:32:58.663Z,7.00
2023-02-22T10:35:27.925Z,6.00
2023-02-22T10:37:58.790Z,6.22
2023-02-22T10:40:26.377Z,6.18
2023-02-22T10:42:53.008Z,6.43
2023-02-22T10:45:25.226Z,6.50
2023-02-22T10:47:55.905Z,6.55
2023-02-22T10:50:23.243Z,6.90
2023-02-22T10:52:49.849Z,5.97
2023-02-22T10:55:17.849Z,6.30
2023-02-22T10:57:46.647Z,6.50
2023-02-22T11:00:22.097Z,6.72
2023-02-22T11:02:52.454Z,7.43
2023-02-22T11:05:31.636Z,7.05
2023-02-22T11:08:25.004Z,7.07
2023-02-22T11:10:54.964Z,6.55
2023-02-22T11:13:26.651Z,7.25
2023-02-22T11:15:58.209Z,7.00
2023-02-22T11:18:28.398Z,6.72
2023-02-22T11:21:04.806Z,6.87
2023-02-22T11:23:32.259Z,6.78
2023-02-22T11:26:07.195Z,7.20
2023-02-22T11:28:34.545Z,6.72
2023-02-22T11:31:14.459Z,6.82
2023-02-22T11:33:49.433Z,6.50
2023-02-22T11:36:30.375Z,6.97
2023-02-22T11:38:57.926Z,6.53
2023-02-22T11:41:28.834Z,6.00
2023-02-22T11:44:13.073Z,6.70
2023-02-22T11:46:41.420Z,6.00
2023-02-22T11:49:11.025Z,6.43
2023-02-22T11:51:56.430Z,6.70
2023-02-22T11:54:36.672Z,6.38
2023-02-22T11:57:15.545Z,6.40
2023-02-22T11:59:51.094Z,6.37
2023-02-22T12:02:41.631Z,6.13
2023-02-22T12:05:24.128Z,6.22
2023-02-22T12:08:18.947Z,6.47
2023-02-22T12:10:59.772Z,6.85
2023-02-22T12:13:38.780Z,6.40
2023-02-22T12:16:15.444Z,5.88
2023-02-22T12:18:58.011Z,6.40
2023-02-22T12:21:26.521Z,6.15
2023-02-22T12:23:57.903Z,5.68
2023-02-22T12:26:28.340Z,5.37
2023-02-22T12:29:00.249Z,5.55
2023-02-22T12:31:32.618Z,5.97
2023-02-22T12:34:07.142Z,6.03
2023-02-22T12:36:39.579Z,5.82
2023-02-22T12:39:25.272Z,5.97
2023-02-22T12:41:54.799Z,6.28
2023-02-22T12:44:27.990Z,6.07
2023-02-22T12:46:56.878Z,6.22
2023-02-22T12:49:31.362Z,5.03
2023-02-22T12:52:19.338Z,5.47
2023-02-22T12:54:53.726Z,5.38
2023-02-22T12:57:26.924Z,5.35
2023-02-22T12:59:57.590Z,5.70
2023-02-22T13:02:32.418Z,5.28
2023-02-22T13:05:01.314Z,5.10
2023-02-22T13:07:41.386Z,5.60
2023-02-22T13:10:30.913Z,6.20
2023-02-22T13:13:06.063Z,5.35
2023-02-22T13:15:40.727Z,5.53
2023-02-22T13:18:14.533Z,4.03
2023-02-22T13:20:48.424Z,4.43
2023-02-22T13:23:24.371Z,5.03
2023-02-22T13:25:55.601Z,4.30
2023-02-22T13:28:28.589Z,5.15
2023-02-22T13:31:09.901Z,4.40
2023-02-22T13:33:52.417Z,4.60
2023-02-22T13:36:32.177Z,6.43
2023-02-22T13:39:33.824Z,5.43
2023-02-22T13:42:17.185Z,5.00
2023-02-22T13:45:19.004Z,4.53
2023-02-22T13:48:07.635Z,5.22
2023-02-22T13:50:50.231Z,5.57
2023-02-22T13:53:21.433Z,4.65
2023-02-22T13:55:53.599Z,4.22
2023-02-22T13:58:20.443Z,3.70
2023-02-22T14:00:49.489Z,4.25
2023-02-22T14:03:34.033Z,4.18
2023-02-22T14:06:00.668Z,4.10
2023-02-22T14:08:46.057Z,4.03
2023-02-22T14:11:47.929Z,4.20
2023-02-22T14:14:17.850Z,3.92
2023-02-22T14:16:44.821Z,3.67
2023-02-22T14:19:18.244Z,3.75
2023-02-22T14:21:58.882Z,4.40
2023-02-22T14:24:25.553Z,3.87
2023-02-22T14:26:58.905Z,4.40
2023-02-22T14:29:26.284Z,4.97
2023-02-22T14:32:02.995Z,4.38
2023-02-22T14:34:46.639Z,5.63
2023-02-22T14:37:16.412Z,5.73
2023-02-22T14:39:46.172Z,6.07
2023-02-22T14:42:17.337Z,6.35
2023-02-22T14:44:53.255Z,5.80
2023-02-22T14:47:24.350Z,5.15
2023-02-22T14:49:55.472Z,4.33
2023-02-22T14:52:26.203Z,4.35
2023-02-22T14:55:00.233Z,4.50
2023-02-22T14:57:34.868Z,3.75
2023-02-22T15:00:07.003Z,4.53
2023-02-22T15:02:38.400Z,4.23
2023-02-22T15:05:07.920Z,4.15
2023-02-22T15:07:34.654Z,4.10
2023-02-22T15:10:16.967Z,4.78
2023-02-22T15:12:51.624Z,4.28
2023-02-22T15:15:20.399Z,4.13
2023-02-22T15:17:47.671Z,4.70
2023-02-22T15:20:17.126Z,4.45
2023-02-22T15:22:43.957Z,4.68
2023-02-22T15:25:10.708Z,4.78
2023-02-22T15:27:38.774Z,4.97
2023-02-22T15:30:16.399Z,4.93
2023-02-22T15:32:57.111Z,4.50
2023-02-22T15:35:31.289Z,4.40
2023-02-22T15:37:59.996Z,4.35
2023-02-22T15:40:27.207Z,4.93
2023-02-22T15:42:54.140Z,4.82
2023-02-22T15:45:22.353Z,4.82
2023-02-22T15:47:49.664Z,4.68
2023-02-22T15:50:22.583Z,4.57
2023-02-22T15:52:54.885Z,4.50
2023-02-22T15:55:25.839Z,4.28
2023-02-22T15:57:52.853Z,4.60
2023-02-22T16:00:26.022Z,4.05
2023-02-22T16:02:57.374Z,4.28
2023-02-22T16:05:37.014Z,4.27
2023-02-22T16:08:13.670Z,4.20
2023-02-22T16:10:47.317Z,3.83
2023-02-22T16:13:31.073Z,4.28
2023-02-22T16:16:00.735Z,3.42
2023-02-22T16:18:29.865Z,4.70
2023-02-22T16:21:01.611Z,4.30
2023-02-22T16:23:30.640Z,4.30
2023-02-22T16:26:05.920Z,4.60
2023-02-22T16:28:32.626Z,4.60
2023-02-22T16:30:59.777Z,4.47
2023-02-22T16:33:26.487Z,3.95
2023-02-22T16:35:53.166Z,4.30
2023-02-22T16:38:20.247Z,4.72
2023-02-22T16:40:50.233Z,4.40
2023-02-22T16:43:19.321Z,4.67
2023-02-22T16:45:46.103Z,4.50
2023-02-22T16:48:16.851Z,5.53
2023-02-22T16:50:43.508Z,4.97
2023-02-22T16:53:10.264Z,4.90
2023-02-22T16:55:36.896Z,4.53
2023-02-22T16:58:05.080Z,5.00
2023-02-22T17:00:31.938Z,4.10
2023-02-22T17:02:59.448Z,4.70
2023-02-22T17:05:26.119Z,4.63
2023-02-22T17:07:52.785Z,4.23
2023-02-22T17:10:19.910Z,4.38
2023-02-22T17:12:48.277Z,4.93
2023-02-22T17:15:24.395Z,4.07
2023-02-22T17:17:52.270Z,3.72
2023-02-22T17:20:19.352Z,3.50
2023-02-22T17:22:46.025Z,2.97
2023-02-22T17:25:19.783Z,3.20
2023-02-22T17:27:46.425Z,3.03
2023-02-22T17:30:15.040Z,3.25
2023-02-22T17:32:43.828Z,3.60
2023-02-22T17:35:10.466Z,4.20
2023-02-22T17:37:37.140Z,4.88
2023-02-22T17:40:04.411Z,4.35
2023-02-22T17:42:31.087Z,4.78
2023-02-22T17:44:57.641Z,3.90
2023-02-22T17:47:24.319Z,5.40
2023-02-22T17:49:52.333Z,4.60
2023-02-22T17:52:19.088Z,5.78
2023-02-22T17:54:45.706Z,4.18
2023-02-22T17:57:12.283Z,6.40
2023-02-22T17:59:40.535Z,4.45
2023-02-22T18:02:07.324Z,4.47
2023-02-22T18:04:34.298Z,4.10
2023-02-22T18:07:02.305Z,3.90
2023-02-22T18:09:29.110Z,4.10
2023-02-22T18:11:55.767Z,3.70
2023-02-22T18:14:22.354Z,3.75
2023-02-22T18:16:49.147Z,3.20
2023-02-22T18:19:15.825Z,2.85
2023-02-22T18:21:42.444Z,2.90
2023-02-22T18:24:10.436Z,3.00
2023-02-22T18:26:37.277Z,3.10
2023-02-22T18:29:03.875Z,3.03
2023-02-22T18:31:30.657Z,4.05
2023-02-22T18:33:57.698Z,4.87
2023-02-22T18:36:25.015Z,4.30
2023-02-22T18:38:53.562Z,4.07
2023-02-22T18:41:23.838Z,6.68
2023-02-22T18:43:50.866Z,4.20
2023-02-22T18:46:19.934Z,4.13
2023-02-22T18:48:47.551Z,6.40
2023-02-22T18:51:16.044Z,5.93
2023-02-22T18:53:46.967Z,4.93
2023-02-22T18:56:15.767Z,4.13
2023-02-22T18:58:43.806Z,4.50
2023-02-22T19:01:15.460Z,5.95
2023-02-22T19:03:42.093Z,6.00
2023-02-22T19:06:08.896Z,6.20
2023-02-22T19:08:35.606Z,5.65
2023-02-22T19:11:03.367Z,5.60
2023-02-22T19:13:31.147Z,5.00
2023-02-22T19:16:01.910Z,5.38
2023-02-22T19:18:28.722Z,5.43
2023-02-22T19:20:56.046Z,6.00
2023-02-22T19:23:22.603Z,5.17
2023-02-22T19:25:49.194Z,5.28
2023-02-22T19:28:15.751Z,5.00
2023-02-22T19:30:42.725Z,4.75
2023-02-22T19:33:10.797Z,5.05
2023-02-22T19:35:37.534Z,4.60
2023-02-22T19:38:04.505Z,4.68
2023-02-22T19:40:31.092Z,4.93
2023-02-22T19:42:57.702Z,5.28
2023-02-22T19:45:24.927Z,5.00
2023-02-22T19:47:54.273Z,4.50
2023-02-22T19:50:22.668Z,4.10
2023-02-22T19:52:49.321Z,4.75
2023-02-22T19:55:15.991Z,4.45
2023-02-22T19:57:44.301Z,3.92
2023-02-22T20:00:12.347Z,4.83
2023-02-22T20:02:40.114Z,5.22
2023-02-22T20:05:07.932Z,4.90
2023-02-22T20:07:36.300Z,4.18
2023-02-22T20:10:03.063Z,4.55
2023-02-22T20:12:29.724Z,4.13
2023-02-22T20:14:56.414Z,4.20
2023-02-22T20:17:23.095Z,5.50
2023-02-22T20:19:49.834Z,8.68
2023-02-22T20:22:16.484Z,9.73
2023-02-22T20:24:44.443Z,8.87
2023-02-22T20:27:11.098Z,9.88
2023-02-22T20:29:37.734Z,8.98
2023-02-22T20:32:05.183Z,8.95
2023-02-22T20:34:32.371Z,9.93
2023-02-22T20:36:59.464Z,9.50
2023-02-22T20:39:26.208Z,9.00
2023-02-22T20:41:54.304Z,8.23
2023-02-22T20:44:21.398Z,8.85
2023-02-22T20:46:48.804Z,8.90
2023-02-22T20:49:17.415Z,8.77
2023-02-22T20:51:45.052Z,9.32
2023-02-22T20:54:12.424Z,9.60
2023-02-22T20:56:40.613Z,10.55
2023-02-22T20:59:11.631Z,10.30
2023-02-22T21:01:38.800Z,12.87
2023-02-22T21:04:07.145Z,12.13
2023-02-22T21:06:34.123Z,13.13
2023-02-22T21:09:01.520Z,12.82
2023-02-22T21:11:29.722Z,13.20
2023-02-22T21:13:56.586Z,11.27
2023-02-22T21:16:26.980Z,10.90
2023-02-22T21:18:55.508Z,9.25
2023-02-22T21:21:23.445Z,10.50
2023-02-22T21:23:51.994Z,10.38
2023-02-22T21:26:21.635Z,11.77
2023-02-22T21:28:51.260Z,11.02
2023-02-22T21:31:20.287Z,10.15
2023-02-22T21:33:51.043Z,11.05
2023-02-22T21:36:18.467Z,14.88
2023-02-22T21:38:46.743Z,13.80
2023-02-22T21:41:14.473Z,12.48
2023-02-22T21:43:41.737Z,13.02
2023-02-22T21:46:09.627Z,14.40
2023-02-22T21:48:37.897Z,14.95
2023-02-22T21:51:10.123Z,16.20
2023-02-22T21:53:36.775Z,15.13
2023-02-22T21:56:05.335Z,14.15
2023-02-22T21:58:32.113Z,14.05
2023-02-22T22:01:04.705Z,14.70
2023-02-22T22:03:31.735Z,12.37
2023-02-22T22:05:58.375Z,13.88
2023-02-22T22:08:26.404Z,13.85
2023-02-22T22:10:53.210Z,11.82
2023-02-22T22:13:19.878Z,12.57
2023-02-22T22:15:46.484Z,13.97
2023-02-22T22:18:13.132Z,13.02
2023-02-22T22:20:39.764Z,12.80
2023-02-22T22:23:06.878Z,11.23
2023-02-22T22:25:34.941Z,11.40
2023-02-22T22:28:01.584Z,10.43
2023-02-22T22:30:28.231Z,9.73
2023-02-22T22:32:54.834Z,9.82
2023-02-22T22:35:21.429Z,10.50
2023-02-22T22:37:48.067Z,9.43
2023-02-22T22:40:14.744Z,9.67
2023-02-22T22:42:42.940Z,10.23
2023-02-22T22:45:10.283Z,11.65
2023-02-22T22:47:36.996Z,10.63
2023-02-22T22:50:04.168Z,10.27
2023-02-22T22:52:30.817Z,10.60
2023-02-22T22:54:57.431Z,9.43
2023-02-22T22:57:24.128Z,11.13
2023-02-22T22:59:52.123Z,11.60
2023-02-22T23:02:18.724Z,11.45
2023-02-22T23:04:45.290Z,14.17
2023-02-22T23:07:11.924Z,15.30
2023-02-22T23:09:38.538Z,15.30
2023-02-22T23:12:05.963Z,14.02
2023-02-22T23:14:32.596Z,14.00
2023-02-22T23:17:00.827Z,13.70
2023-02-22T23:19:27.459Z,13.32
2023-02-22T23:21:54.067Z,12.35
2023-02-22T23:24:20.700Z,13.20
2023-02-22T23:26:48.038Z,14.65
2023-02-22T23:29:15.298Z,12.57
2023-02-22T23:31:41.983Z,12.45
2023-02-22T23:34:10.067Z,11.95
2023-02-22T23:36:37.185Z,10.27
2023-02-22T23:39:04.082Z,11.75
2023-02-22T23:41:30.704Z,9.67
2023-02-22T23:43:57.339Z,9.48
2023-02-22T23:46:24.141Z,9.73
2023-02-22T23:48:52.985Z,9.73
2023-02-22T23:51:23.924Z,9.07
2023-02-22T23:53:51.710Z,9.53
2023-02-22T23:56:19.913Z,10.48
2023-02-22T23:58:46.924Z,9.85
